sensor_id;sensor_type;location;lat;lon;timestamp;pressure;altitude;pressure_sealevel;temperature;humidity
70437;BME280;57877;39.750;-104.894;2024-01-15T00:01:57;83112.97;;;-12.02;32.64
70437;BME280;57877;39.750;-104.894;2024-01-15T00:04:22;83105.64;;;-13.57;33.53
70437;BME280;57877;39.750;-104.894;2024-01-15T00:06:48;83116.51;;;-12.92;33.20
70437;BME280;57877;39.750;-104.894;2024-01-15T00:09:13;83122.66;;;-12.43;32.39
70437;BME280;57877;39.750;-104.894;2024-01-15T00:11:38;83124.89;;;-12.46;31.81
70437;BME280;57877;39.750;-104.894;2024-01-15T00:14:03;83110.50;;;-12.37;32.38
70437;BME280;57877;39.750;-104.894;2024-01-15T00:16:29;83108.66;;;-12.58;31.73
70437;BME280;57877;39.750;-104.894;2024-01-15T00:18:54;83097.53;;;-12.94;33.17
70437;BME280;57877;39.750;-104.894;2024-01-15T00:21:20;83102.52;;;-12.48;31.68
70437;BME280;57877;39.750;-104.894;2024-01-15T00:23:45;83107.69;;;-12.56;32.31
70437;BME280;57877;39.750;-104.894;2024-01-15T00:26:11;83100.30;;;-12.74;32.49
70437;BME280;57877;39.750;-104.894;2024-01-15T00:28:37;83089.42;;;-12.60;32.99
70437;BME280;57877;39.750;-104.894;2024-01-15T00:31:01;83092.78;;;-12.69;33.14
70437;BME280;57877;39.750;-104.894;2024-01-15T00:33:27;83087.53;;;-12.50;32.21
70437;BME280;57877;39.750;-104.894;2024-01-15T00:35:52;83087.05;;;-12.41;32.72
70437;BME280;57877;39.750;-104.894;2024-01-15T00:38:17;83072.17;;;-12.52;32.73
70437;BME280;57877;39.750;-104.894;2024-01-15T00:40:43;83062.12;;;-12.78;32.58
70437;BME280;57877;39.750;-104.894;2024-01-15T00:43:08;83048.08;;;-12.84;32.38
70437;BME280;57877;39.750;-104.894;2024-01-15T00:45:34;83050.41;;;-12.26;32.00
70437;BME280;57877;39.750;-104.894;2024-01-15T00:47:59;83049.63;;;-12.31;31.50
70437;BME280;57877;39.750;-104.894;2024-01-15T00:50:25;83048.91;;;-12.20;31.82
70437;BME280;57877;39.750;-104.894;2024-01-15T00:52:50;83054.79;;;-12.17;31.48
70437;BME280;57877;39.750;-104.894;2024-01-15T00:55:16;83052.79;;;-12.40;32.27
70437;BME280;57877;39.750;-104.894;2024-01-15T00:57:41;83056.94;;;-12.50;31.90
70437;BME280;57877;39.750;-104.894;2024-01-15T01:00:07;83062.95;;;-12.06;31.42
70437;BME280;57877;39.750;-104.894;2024-01-15T01:02:32;83062.31;;;-12.31;32.01
70437;BME280;57877;39.750;-104.894;2024-01-15T01:04:57;83035.33;;;-12.28;33.54
70437;BME280;57877;39.750;-104.894;2024-01-15T01:07:23;83037.24;;;-12.71;33.50
70437;BME280;57877;39.750;-104.894;2024-01-15T01:09:48;83046.47;;;-12.40;33.52
70437;BME280;57877;39.750;-104.894;2024-01-15T01:12:14;83030.98;;;-12.74;33.14
70437;BME280;57877;39.750;-104.894;2024-01-15T01:14:39;83026.79;;;-12.85;32.85
70437;BME280;57877;39.750;-104.894;2024-01-15T01:17:05;83011.96;;;-13.19;33.43
70437;BME280;57877;39.750;-104.894;2024-01-15T01:19:30;83013.15;;;-12.81;33.30
70437;BME280;57877;39.750;-104.894;2024-01-15T01:21:56;83011.66;;;-12.57;32.93
70437;BME280;57877;39.750;-104.894;2024-01-15T01:24:21;83010.78;;;-12.87;32.81
70437;BME280;57877;39.750;-104.894;2024-01-15T01:26:47;83014.83;;;-13.03;32.42
70437;BME280;57877;39.750;-104.894;2024-01-15T01:29:12;83005.44;;;-12.22;31.69
70437;BME280;57877;39.750;-104.894;2024-01-15T01:31:43;83014.60;;;-12.58;32.57
70437;BME280;57877;39.750;-104.894;2024-01-15T01:34:03;83012.66;;;-12.28;32.15
70437;BME280;57877;39.750;-104.894;2024-01-15T01:36:28;83007.79;;;-13.17;32.82
70437;BME280;57877;39.750;-104.894;2024-01-15T01:38:54;83015.16;;;-12.37;33.06
70437;BME280;57877;39.750;-104.894;2024-01-15T01:41:19;83010.58;;;-13.25;34.85
70437;BME280;57877;39.750;-104.894;2024-01-15T01:43:45;83027.10;;;-13.11;34.55
70437;BME280;57877;39.750;-104.894;2024-01-15T01:46:10;83006.12;;;-12.81;34.68
70437;BME280;57877;39.750;-104.894;2024-01-15T01:48:36;83004.20;;;-12.65;35.47
70437;BME280;57877;39.750;-104.894;2024-01-15T01:51:03;82998.69;;;-13.51;35.66
70437;BME280;57877;39.750;-104.894;2024-01-15T01:53:27;83013.17;;;-13.21;34.94
70437;BME280;57877;39.750;-104.894;2024-01-15T01:55:53;82999.95;;;-13.10;34.55
70437;BME280;57877;39.750;-104.894;2024-01-15T01:58:18;82988.67;;;-13.31;35.08
70437;BME280;57877;39.750;-104.894;2024-01-15T02:00:43;83002.91;;;-13.49;34.60
70437;BME280;57877;39.750;-104.894;2024-01-15T02:03:09;83006.53;;;-13.34;35.31
70437;BME280;57877;39.750;-104.894;2024-01-15T02:05:35;82990.02;;;-12.96;34.21
70437;BME280;57877;39.750;-104.894;2024-01-15T02:07:59;82985.58;;;-12.52;34.33
70437;BME280;57877;39.750;-104.894;2024-01-15T02:10:25;82997.59;;;-12.62;34.65
70437;BME280;57877;39.750;-104.894;2024-01-15T02:12:50;82980.87;;;-12.65;34.56
70437;BME280;57877;39.750;-104.894;2024-01-15T02:15:16;83001.86;;;-13.02;34.85
70437;BME280;57877;39.750;-104.894;2024-01-15T02:20:08;82998.70;;;-12.70;34.34
70437;BME280;57877;39.750;-104.894;2024-01-15T02:22:32;83000.64;;;-12.80;34.22
70437;BME280;57877;39.750;-104.894;2024-01-15T02:24:58;83010.64;;;-12.63;33.64
70437;BME280;57877;39.750;-104.894;2024-01-15T02:27:23;82999.70;;;-12.64;34.06
70437;BME280;57877;39.750;-104.894;2024-01-15T02:29:49;83002.58;;;-13.84;34.60
70437;BME280;57877;39.750;-104.894;2024-01-15T02:32:14;83007.50;;;-14.11;34.96
70437;BME280;57877;39.750;-104.894;2024-01-15T02:34:40;83013.27;;;-13.85;35.46
70437;BME280;57877;39.750;-104.894;2024-01-15T02:37:05;83004.37;;;-13.40;35.03
70437;BME280;57877;39.750;-104.894;2024-01-15T02:39:30;82984.72;;;-12.94;33.82
70437;BME280;57877;39.750;-104.894;2024-01-15T02:41:56;82973.79;;;-13.05;34.30
70437;BME280;57877;39.750;-104.894;2024-01-15T02:44:22;82971.99;;;-13.45;34.54
70437;BME280;57877;39.750;-104.894;2024-01-15T02:46:47;82965.49;;;-12.91;34.26
70437;BME280;57877;39.750;-104.894;2024-01-15T02:49:12;82954.83;;;-13.53;35.10
70437;BME280;57877;39.750;-104.894;2024-01-15T02:51:38;82950.56;;;-13.38;35.22
70437;BME280;57877;39.750;-104.894;2024-01-15T02:54:03;82928.89;;;-12.90;33.62
70437;BME280;57877;39.750;-104.894;2024-01-15T02:56:28;82897.98;;;-12.71;33.53
70437;BME280;57877;39.750;-104.894;2024-01-15T02:58:54;82902.87;;;-13.67;34.43
70437;BME280;57877;39.750;-104.894;2024-01-15T03:01:19;82905.97;;;-12.98;33.88
70437;BME280;57877;39.750;-104.894;2024-01-15T03:03:45;82913.10;;;-12.50;33.21
70437;BME280;57877;39.750;-104.894;2024-01-15T03:06:11;82909.98;;;-12.60;33.67
70437;BME280;57877;39.750;-104.894;2024-01-15T03:08:35;82896.18;;;-12.43;33.39
70437;BME280;57877;39.750;-104.894;2024-01-15T03:11:01;82903.22;;;-12.60;33.06
70437;BME280;57877;39.750;-104.894;2024-01-15T03:13:26;82910.33;;;-12.48;32.74
70437;BME280;57877;39.750;-104.894;2024-01-15T03:15:52;82903.82;;;-12.35;32.69
70437;BME280;57877;39.750;-104.894;2024-01-15T03:18:17;82900.71;;;-12.61;32.52
70437;BME280;57877;39.750;-104.894;2024-01-15T03:20:42;82882.71;;;-12.72;32.27
70437;BME280;57877;39.750;-104.894;2024-01-15T03:23:08;82884.34;;;-12.68;32.45
70437;BME280;57877;39.750;-104.894;2024-01-15T03:25:33;82888.40;;;-12.89;33.02
70437;BME280;57877;39.750;-104.894;2024-01-15T03:27:58;82879.20;;;-12.88;33.53
70437;BME280;57877;39.750;-104.894;2024-01-15T03:30:24;82885.59;;;-12.84;33.35
70437;BME280;57877;39.750;-104.894;2024-01-15T03:32:49;82896.60;;;-12.86;33.83
70437;BME280;57877;39.750;-104.894;2024-01-15T03:35:15;82865.88;;;-12.54;32.83
70437;BME280;57877;39.750;-104.894;2024-01-15T03:37:40;82897.10;;;-12.69;33.15
70437;BME280;57877;39.750;-104.894;2024-01-15T03:40:07;82856.86;;;-13.03;34.32
70437;BME280;57877;39.750;-104.894;2024-01-15T03:42:31;82873.10;;;-13.35;34.83
70437;BME280;57877;39.750;-104.894;2024-01-15T03:44:57;82881.66;;;-13.40;34.84
70437;BME280;57877;39.750;-104.894;2024-01-15T03:47:22;82834.91;;;-12.82;34.48
70437;BME280;57877;39.750;-104.894;2024-01-15T03:49:47;82863.27;;;-13.17;35.19
70437;BME280;57877;39.750;-104.894;2024-01-15T03:52:13;82856.81;;;-14.33;37.25
70437;BME280;57877;39.750;-104.894;2024-01-15T03:54:38;82851.77;;;-13.89;36.58
70437;BME280;57877;39.750;-104.894;2024-01-15T03:57:04;82864.42;;;-13.58;36.49
70437;BME280;57877;39.750;-104.894;2024-01-15T03:59:29;82867.07;;;-13.63;35.88
70437;BME280;57877;39.750;-104.894;2024-01-15T04:01:54;82878.99;;;-13.00;35.60
70437;BME280;57877;39.750;-104.894;2024-01-15T04:04:20;82864.36;;;-13.32;36.29
70437;BME280;57877;39.750;-104.894;2024-01-15T04:06:45;82882.96;;;-13.62;35.83
70437;BME280;57877;39.750;-104.894;2024-01-15T04:09:12;82900.63;;;-14.32;36.89
70437;BME280;57877;39.750;-104.894;2024-01-15T04:11:36;82907.47;;;-13.53;35.88
70437;BME280;57877;39.750;-104.894;2024-01-15T04:14:02;82912.81;;;-13.85;36.25
70437;BME280;57877;39.750;-104.894;2024-01-15T04:16:27;82911.45;;;-15.57;36.47
70437;BME280;57877;39.750;-104.894;2024-01-15T04:18:52;82897.27;;;-15.19;36.31
70437;BME280;57877;39.750;-104.894;2024-01-15T04:21:18;82888.34;;;-14.73;36.13
70437;BME280;57877;39.750;-104.894;2024-01-15T04:23:43;82899.57;;;-15.35;37.69
70437;BME280;57877;39.750;-104.894;2024-01-15T04:26:09;82902.21;;;-14.77;36.81
70437;BME280;57877;39.750;-104.894;2024-01-15T04:28:34;82853.31;;;-14.03;35.94
70437;BME280;57877;39.750;-104.894;2024-01-15T04:30:59;82888.45;;;-15.70;37.57
70437;BME280;57877;39.750;-104.894;2024-01-15T04:33:25;82918.72;;;-17.18;40.32
70437;BME280;57877;39.750;-104.894;2024-01-15T04:35:50;82898.89;;;-16.12;39.39
70437;BME280;57877;39.750;-104.894;2024-01-15T04:38:16;82900.63;;;-16.46;38.62
70437;BME280;57877;39.750;-104.894;2024-01-15T04:40:42;82928.13;;;-16.83;39.59
70437;BME280;57877;39.750;-104.894;2024-01-15T04:43:07;82893.99;;;-17.52;41.68
70437;BME280;57877;39.750;-104.894;2024-01-15T04:45:33;82893.57;;;-15.52;39.63
70437;BME280;57877;39.750;-104.894;2024-01-15T04:47:58;82879.50;;;-15.41;38.58
70437;BME280;57877;39.750;-104.894;2024-01-15T04:50:23;82892.88;;;-16.72;40.29
70437;BME280;57877;39.750;-104.894;2024-01-15T04:52:49;82888.40;;;-15.81;38.67
70437;BME280;57877;39.750;-104.894;2024-01-15T04:55:14;82889.64;;;-17.44;41.06
70437;BME280;57877;39.750;-104.894;2024-01-15T04:57:40;82886.69;;;-16.40;40.67
70437;BME280;57877;39.750;-104.894;2024-01-15T05:00:07;82892.58;;;-16.59;41.07
70437;BME280;57877;39.750;-104.894;2024-01-15T05:02:31;82907.47;;;-17.27;41.08
70437;BME280;57877;39.750;-104.894;2024-01-15T05:04:56;82890.91;;;-16.55;40.50
70437;BME280;57877;39.750;-104.894;2024-01-15T05:07:22;82905.10;;;-17.05;41.09
70437;BME280;57877;39.750;-104.894;2024-01-15T05:09:47;82917.44;;;-16.62;40.02
70437;BME280;57877;39.750;-104.894;2024-01-15T05:12:13;82916.67;;;-16.03;39.64
70437;BME280;57877;39.750;-104.894;2024-01-15T05:14:38;82935.10;;;-16.33;39.69
70437;BME280;57877;39.750;-104.894;2024-01-15T05:17:04;82943.13;;;-16.92;39.32
70437;BME280;57877;39.750;-104.894;2024-01-15T05:19:29;82909.50;;;-16.61;40.53
70437;BME280;57877;39.750;-104.894;2024-01-15T05:21:54;82929.04;;;-16.27;39.85
70437;BME280;57877;39.750;-104.894;2024-01-15T05:24:20;82910.38;;;-16.51;39.55
70437;BME280;57877;39.750;-104.894;2024-01-15T05:26:45;82899.89;;;-16.63;38.84
70437;BME280;57877;39.750;-104.894;2024-01-15T05:29:11;82864.29;;;-16.66;40.50
70437;BME280;57877;39.750;-104.894;2024-01-15T05:31:36;82872.29;;;-16.68;39.58
70437;BME280;57877;39.750;-104.894;2024-01-15T05:34:02;82840.24;;;-16.59;39.65
70437;BME280;57877;39.750;-104.894;2024-01-15T05:36:27;82883.50;;;-16.95;39.72
70437;BME280;57877;39.750;-104.894;2024-01-15T05:38:53;82900.93;;;-17.06;39.70
70437;BME280;57877;39.750;-104.894;2024-01-15T05:41:18;82869.90;;;-16.75;39.61
70437;BME280;57877;39.750;-104.894;2024-01-15T05:43:44;82912.63;;;-17.42;39.83
70437;BME280;57877;39.750;-104.894;2024-01-15T05:46:09;82891.12;;;-16.96;39.66
70437;BME280;57877;39.750;-104.894;2024-01-15T05:48:35;82907.41;;;-16.52;39.65
70437;BME280;57877;39.750;-104.894;2024-01-15T05:51:00;82904.03;;;-16.23;38.74
70437;BME280;57877;39.750;-104.894;2024-01-15T05:53:26;82922.78;;;-15.72;37.74
70437;BME280;57877;39.750;-104.894;2024-01-15T05:55:51;82908.44;;;-17.23;39.26
70437;BME280;57877;39.750;-104.894;2024-01-15T05:58:16;82921.01;;;-16.17;37.72
70437;BME280;57877;39.750;-104.894;2024-01-15T06:00:42;82940.14;;;-17.53;39.98
70437;BME280;57877;39.750;-104.894;2024-01-15T06:03:08;82905.32;;;-16.28;38.64
70437;BME280;57877;39.750;-104.894;2024-01-15T06:05:33;82934.79;;;-18.05;40.88
70437;BME280;57877;39.750;-104.894;2024-01-15T06:07:58;82907.63;;;-16.33;39.22
70437;BME280;57877;39.750;-104.894;2024-01-15T06:10:24;82931.30;;;-16.91;39.16
70437;BME280;57877;39.750;-104.894;2024-01-15T06:12:49;82914.14;;;-16.31;39.28
70437;BME280;57877;39.750;-104.894;2024-01-15T06:15:15;82907.09;;;-16.39;39.11
70437;BME280;57877;39.750;-104.894;2024-01-15T06:17:40;82919.78;;;-17.37;40.22
70437;BME280;57877;39.750;-104.894;2024-01-15T06:20:07;82916.07;;;-16.23;38.54
70437;BME280;57877;39.750;-104.894;2024-01-15T06:22:31;82909.35;;;-16.25;37.93
70437;BME280;57877;39.750;-104.894;2024-01-15T06:24:57;82900.36;;;-16.01;37.86
70437;BME280;57877;39.750;-104.894;2024-01-15T06:27:22;82922.02;;;-16.00;38.16
70437;BME280;57877;39.750;-104.894;2024-01-15T06:29:48;82916.13;;;-16.28;39.11
70437;BME280;57877;39.750;-104.894;2024-01-15T06:32:14;82936.53;;;-16.84;39.41
70437;BME280;57877;39.750;-104.894;2024-01-15T06:34:39;82907.37;;;-16.34;38.19
70437;BME280;57877;39.750;-104.894;2024-01-15T06:37:04;82923.50;;;-15.80;37.93
70437;BME280;57877;39.750;-104.894;2024-01-15T06:39:30;82949.88;;;-16.63;39.33
70437;BME280;57877;39.750;-104.894;2024-01-15T06:41:55;82929.87;;;-16.46;39.12
70437;BME280;57877;39.750;-104.894;2024-01-15T06:44:21;82939.36;;;-16.61;39.01
70437;BME280;57877;39.750;-104.894;2024-01-15T06:46:47;82940.13;;;-16.78;38.00
70437;BME280;57877;39.750;-104.894;2024-01-15T06:49:12;82939.50;;;-16.20;38.40
70437;BME280;57877;39.750;-104.894;2024-01-15T06:51:37;82929.85;;;-16.83;39.60
70437;BME280;57877;39.750;-104.894;2024-01-15T06:54:03;82933.51;;;-18.28;42.05
70437;BME280;57877;39.750;-104.894;2024-01-15T06:56:28;82915.11;;;-16.79;39.84
70437;BME280;57877;39.750;-104.894;2024-01-15T06:58:53;82944.09;;;-17.66;41.01
70437;BME280;57877;39.750;-104.894;2024-01-15T07:01:19;82909.90;;;-17.43;39.83
70437;BME280;57877;39.750;-104.894;2024-01-15T07:03:44;82916.00;;;-17.27;40.05
70437;BME280;57877;39.750;-104.894;2024-01-15T07:06:10;82924.84;;;-17.03;39.77
70437;BME280;57877;39.750;-104.894;2024-01-15T07:08:35;82927.17;;;-17.30;39.59
70437;BME280;57877;39.750;-104.894;2024-01-15T07:11:04;82922.65;;;-17.31;39.49
70437;BME280;57877;39.750;-104.894;2024-01-15T07:13:26;82952.56;;;-17.81;40.99
70437;BME280;57877;39.750;-104.894;2024-01-15T07:15:52;82947.52;;;-17.01;40.11
70437;BME280;57877;39.750;-104.894;2024-01-15T07:18:17;82963.48;;;-17.46;40.26
70437;BME280;57877;39.750;-104.894;2024-01-15T07:20:43;82975.80;;;-18.14;40.43
70437;BME280;57877;39.750;-104.894;2024-01-15T07:23:08;82987.73;;;-17.61;40.93
70437;BME280;57877;39.750;-104.894;2024-01-15T07:25:33;83003.53;;;-16.80;39.19
70437;BME280;57877;39.750;-104.894;2024-01-15T07:27:59;82995.22;;;-17.19;39.67
70437;BME280;57877;39.750;-104.894;2024-01-15T07:30:24;83005.43;;;-17.37;40.32
70437;BME280;57877;39.750;-104.894;2024-01-15T07:32:50;82972.81;;;-17.12;39.69
70437;BME280;57877;39.750;-104.894;2024-01-15T07:35:16;83012.37;;;-18.19;41.15
70437;BME280;57877;39.750;-104.894;2024-01-15T07:37:41;83027.27;;;-18.28;41.56
70437;BME280;57877;39.750;-104.894;2024-01-15T07:40:07;83017.03;;;-18.30;42.89
70437;BME280;57877;39.750;-104.894;2024-01-15T07:42:32;83034.03;;;-18.15;42.75
70437;BME280;57877;39.750;-104.894;2024-01-15T07:44:57;83038.67;;;-18.14;42.80
70437;BME280;57877;39.750;-104.894;2024-01-15T07:47:23;83046.49;;;-19.18;43.63
70437;BME280;57877;39.750;-104.894;2024-01-15T07:49:48;83060.93;;;-18.34;41.84
70437;BME280;57877;39.750;-104.894;2024-01-15T07:52:13;83067.37;;;-18.06;41.86
70437;BME280;57877;39.750;-104.894;2024-01-15T07:54:39;83024.60;;;-17.31;41.30
70437;BME280;57877;39.750;-104.894;2024-01-15T07:57:05;83034.14;;;-17.17;40.81
70437;BME280;57877;39.750;-104.894;2024-01-15T07:59:30;83057.79;;;-17.90;41.60
70437;BME280;57877;39.750;-104.894;2024-01-15T08:01:56;83063.22;;;-17.78;41.40
70437;BME280;57877;39.750;-104.894;2024-01-15T08:04:21;83066.67;;;-18.30;42.25
70437;BME280;57877;39.750;-104.894;2024-01-15T08:06:47;83080.20;;;-17.73;40.95
70437;BME280;57877;39.750;-104.894;2024-01-15T08:09:12;83092.95;;;-18.71;42.95
70437;BME280;57877;39.750;-104.894;2024-01-15T08:11:39;83093.10;;;-19.16;43.68
70437;BME280;57877;39.750;-104.894;2024-01-15T08:14:03;83112.39;;;-18.16;43.33
70437;BME280;57877;39.750;-104.894;2024-01-15T08:16:29;83102.40;;;-17.70;43.00
70437;BME280;57877;39.750;-104.894;2024-01-15T08:18:54;83101.05;;;-18.51;44.02
70437;BME280;57877;39.750;-104.894;2024-01-15T08:21:20;83107.86;;;-17.97;43.63
70437;BME280;57877;39.750;-104.894;2024-01-15T08:23:45;83127.66;;;-20.03;45.86
70437;BME280;57877;39.750;-104.894;2024-01-15T08:26:11;83157.82;;;-18.67;45.69
70437;BME280;57877;39.750;-104.894;2024-01-15T08:28:36;83167.36;;;-19.22;46.86
70437;BME280;57877;39.750;-104.894;2024-01-15T08:31:01;83136.34;;;-19.52;47.82
70437;BME280;57877;39.750;-104.894;2024-01-15T08:33:27;83146.47;;;-18.18;45.50
70437;BME280;57877;39.750;-104.894;2024-01-15T08:35:52;83159.23;;;-18.81;45.24
70437;BME280;57877;39.750;-104.894;2024-01-15T08:38:19;83164.23;;;-18.71;44.67
70437;BME280;57877;39.750;-104.894;2024-01-15T08:40:43;83189.18;;;-18.16;44.33
70437;BME280;57877;39.750;-104.894;2024-01-15T08:43:09;83192.71;;;-18.93;44.74
70437;BME280;57877;39.750;-104.894;2024-01-15T08:45:34;83200.75;;;-18.09;43.94
70437;BME280;57877;39.750;-104.894;2024-01-15T08:48:00;83209.04;;;-18.68;43.69
70437;BME280;57877;39.750;-104.894;2024-01-15T08:50:25;83204.20;;;-19.07;44.24
70437;BME280;57877;39.750;-104.894;2024-01-15T08:52:51;83216.68;;;-18.67;44.23
70437;BME280;57877;39.750;-104.894;2024-01-15T08:55:16;83220.00;;;-18.84;44.45
70437;BME280;57877;39.750;-104.894;2024-01-15T08:57:41;83234.53;;;-19.27;45.86
70437;BME280;57877;39.750;-104.894;2024-01-15T09:00:08;83225.81;;;-18.12;43.61
70437;BME280;57877;39.750;-104.894;2024-01-15T09:02:32;83244.52;;;-18.27;44.92
70437;BME280;57877;39.750;-104.894;2024-01-15T09:04:58;83239.61;;;-17.69;44.30
70437;BME280;57877;39.750;-104.894;2024-01-15T09:07:23;83255.78;;;-17.61;43.21
70437;BME280;57877;39.750;-104.894;2024-01-15T09:09:49;83268.33;;;-18.20;42.96
70437;BME280;57877;39.750;-104.894;2024-01-15T09:12:14;83241.97;;;-17.75;42.98
70437;BME280;57877;39.750;-104.894;2024-01-15T09:14:40;83273.64;;;-18.84;45.03
70437;BME280;57877;39.750;-104.894;2024-01-15T09:17:05;83274.43;;;-19.15;45.81
70437;BME280;57877;39.750;-104.894;2024-01-15T09:19:31;83272.39;;;-17.56;44.37
70437;BME280;57877;39.750;-104.894;2024-01-15T09:21:56;83278.86;;;-17.24;43.09
70437;BME280;57877;39.750;-104.894;2024-01-15T09:24:22;83296.42;;;-16.68;41.91
70437;BME280;57877;39.750;-104.894;2024-01-15T09:26:47;83310.37;;;-17.09;41.42
70437;BME280;57877;39.750;-104.894;2024-01-15T09:29:13;83328.48;;;-17.82;41.89
70437;BME280;57877;39.750;-104.894;2024-01-15T09:31:38;83324.16;;;-17.64;43.03
70437;BME280;57877;39.750;-104.894;2024-01-15T09:34:04;83269.08;;;-17.42;42.50
70437;BME280;57877;39.750;-104.894;2024-01-15T09:36:30;83283.22;;;-17.92;43.82
70437;BME280;57877;39.750;-104.894;2024-01-15T09:38:55;83267.11;;;-17.50;43.61
70437;BME280;57877;39.750;-104.894;2024-01-15T09:41:21;83306.22;;;-17.35;42.88
70437;BME280;57877;39.750;-104.894;2024-01-15T09:43:46;83276.35;;;-17.52;42.11
70437;BME280;57877;39.750;-104.894;2024-01-15T09:46:12;83297.20;;;-17.82;42.62
70437;BME280;57877;39.750;-104.894;2024-01-15T09:48:37;83289.01;;;-17.35;42.57
70437;BME280;57877;39.750;-104.894;2024-01-15T09:51:03;83308.67;;;-17.52;41.73
70437;BME280;57877;39.750;-104.894;2024-01-15T09:53:28;83302.28;;;-17.63;41.48
70437;BME280;57877;39.750;-104.894;2024-01-15T09:55:54;83301.05;;;-17.62;41.94
70437;BME280;57877;39.750;-104.894;2024-01-15T09:58:19;83306.86;;;-17.27;41.61
70437;BME280;57877;39.750;-104.894;2024-01-15T10:00:45;83310.67;;;-17.60;42.15
70437;BME280;57877;39.750;-104.894;2024-01-15T10:03:10;83327.56;;;-17.09;41.83
70437;BME280;57877;39.750;-104.894;2024-01-15T10:05:35;83320.37;;;-17.72;42.94
70437;BME280;57877;39.750;-104.894;2024-01-15T10:08:01;83312.94;;;-17.22;41.76
70437;BME280;57877;39.750;-104.894;2024-01-15T10:10:26;83321.98;;;-18.06;43.09
70437;BME280;57877;39.750;-104.894;2024-01-15T10:12:52;83320.75;;;-17.43;42.76
70437;BME280;57877;39.750;-104.894;2024-01-15T10:15:17;83316.98;;;-18.08;42.64
70437;BME280;57877;39.750;-104.894;2024-01-15T10:17:43;83322.75;;;-17.98;42.55
70437;BME280;57877;39.750;-104.894;2024-01-15T10:20:10;83322.12;;;-16.94;41.03
70437;BME280;57877;39.750;-104.894;2024-01-15T10:22:34;83328.05;;;-16.37;40.03
70437;BME280;57877;39.750;-104.894;2024-01-15T10:24:59;83338.97;;;-16.73;39.74
70437;BME280;57877;39.750;-104.894;2024-01-15T10:27:25;83340.25;;;-17.09;39.90
70437;BME280;57877;39.750;-104.894;2024-01-15T10:29:50;83347.41;;;-17.53;41.54
70437;BME280;57877;39.750;-104.894;2024-01-15T10:32:16;83364.80;;;-17.75;42.24
70437;BME280;57877;39.750;-104.894;2024-01-15T10:34:41;83381.50;;;-17.85;43.43
70437;BME280;57877;39.750;-104.894;2024-01-15T10:37:08;83375.52;;;-18.27;44.02
70437;BME280;57877;39.750;-104.894;2024-01-15T10:39:32;83367.54;;;-17.96;43.92
70437;BME280;57877;39.750;-104.894;2024-01-15T10:41:58;83378.98;;;-16.99;41.70
70437;BME280;57877;39.750;-104.894;2024-01-15T10:44:24;83385.29;;;-16.48;41.46
70437;BME280;57877;39.750;-104.894;2024-01-15T10:46:49;83374.30;;;-17.35;42.84
70437;BME280;57877;39.750;-104.894;2024-01-15T10:49:14;83375.73;;;-19.02;44.06
70437;BME280;57877;39.750;-104.894;2024-01-15T10:51:40;83375.38;;;-18.01;43.52
70437;BME280;57877;39.750;-104.894;2024-01-15T10:54:05;83367.02;;;-17.51;43.97
70437;BME280;57877;39.750;-104.894;2024-01-15T10:56:32;83362.63;;;-15.83;41.40
70437;BME280;57877;39.750;-104.894;2024-01-15T10:58:56;83363.11;;;-17.07;42.48
70437;BME280;57877;39.750;-104.894;2024-01-15T11:01:22;83363.36;;;-16.88;42.68
70437;BME280;57877;39.750;-104.894;2024-01-15T11:03:48;83365.13;;;-18.25;45.12
70437;BME280;57877;39.750;-104.894;2024-01-15T11:06:17;83376.23;;;-17.51;43.83
70437;BME280;57877;39.750;-104.894;2024-01-15T11:08:38;83373.30;;;-16.85;43.73
70437;BME280;57877;39.750;-104.894;2024-01-15T11:11:04;83380.96;;;-16.90;43.16
70437;BME280;57877;39.750;-104.894;2024-01-15T11:15:58;83374.06;;;-18.08;45.25
70437;BME280;57877;39.750;-104.894;2024-01-15T11:18:20;83366.34;;;-18.44;45.09
70437;BME280;57877;39.750;-104.894;2024-01-15T11:23:20;83382.89;;;-17.91;43.72
70437;BME280;57877;39.750;-104.894;2024-01-15T11:25:38;83382.75;;;-17.75;43.83
70437;BME280;57877;39.750;-104.894;2024-01-15T11:28:03;83384.13;;;-19.34;46.80
70437;BME280;57877;39.750;-104.894;2024-01-15T11:30:28;83403.45;;;-19.21;46.10
70437;BME280;57877;39.750;-104.894;2024-01-15T11:32:53;83402.30;;;-18.68;44.78
70437;BME280;57877;39.750;-104.894;2024-01-15T11:35:19;83409.11;;;-19.09;45.17
70437;BME280;57877;39.750;-104.894;2024-01-15T11:40:10;83392.69;;;-19.58;46.69
70437;BME280;57877;39.750;-104.894;2024-01-15T11:42:36;83399.80;;;-19.67;44.95
70437;BME280;57877;39.750;-104.894;2024-01-15T11:45:02;83410.19;;;-19.52;47.46
70437;BME280;57877;39.750;-104.894;2024-01-15T11:49:58;83418.59;;;-18.11;44.32
70437;BME280;57877;39.750;-104.894;2024-01-15T11:52:20;83425.67;;;-19.15;45.29
70437;BME280;57877;39.750;-104.894;2024-01-15T11:54:48;83436.36;;;-18.99;44.41
70437;BME280;57877;39.750;-104.894;2024-01-15T11:57:15;83423.27;;;-18.87;44.37
70437;BME280;57877;39.750;-104.894;2024-01-15T11:59:35;83428.85;;;-18.59;43.98
70437;BME280;57877;39.750;-104.894;2024-01-15T12:02:00;83430.93;;;-19.25;44.93
70437;BME280;57877;39.750;-104.894;2024-01-15T12:04:26;83451.41;;;-19.56;44.83
70437;BME280;57877;39.750;-104.894;2024-01-15T12:06:51;83450.04;;;-18.79;44.47
70437;BME280;57877;39.750;-104.894;2024-01-15T12:09:19;83451.56;;;-19.12;44.58
70437;BME280;57877;39.750;-104.894;2024-01-15T12:11:49;83476.33;;;-19.05;44.78
70437;BME280;57877;39.750;-104.894;2024-01-15T12:14:08;83452.75;;;-19.34;45.33
70437;BME280;57877;39.750;-104.894;2024-01-15T12:16:34;83456.45;;;-18.90;44.26
70437;BME280;57877;39.750;-104.894;2024-01-15T12:18:59;83466.06;;;-20.01;45.42
70437;BME280;57877;39.750;-104.894;2024-01-15T12:21:27;83474.28;;;-18.52;44.57
70437;BME280;57877;39.750;-104.894;2024-01-15T12:23:50;83480.90;;;-19.69;45.22